sensor_id;sensor_type;location;lat;lon;timestamp;P1;durP1;ratioP1;P2;durP2;ratioP2
57593;SDS011;43423;46.510;6.686;2023-02-01T00:00:05;17.63;;;8.85;;
57593;SDS011;43423;46.510;6.686;2023-02-01T00:02:31;19.45;;;8.43;;
57593;SDS011;43423;46.510;6.686;2023-02-01T00:04:57;17.58;;;8.45;;
57593;SDS011;43423;46.510;6.686;2023-02-01T00:07:22;17.80;;;8.67;;
57593;SDS011;43423;46.510;6.686;2023-02-01T00:09:48;18.67;;;8.43;;
57593;SDS011;43423;46.510;6.686;2023-02-01T00:12:13;21.23;;;9.25;;
57593;SDS011;43423;46.510;6.686;2023-02-01T00:14:39;16.60;;;8.85;;
57593;SDS011;43423;46.510;6.686;2023-02-01T00:17:05;17.55;;;7.90;;
57593;SDS011;43423;46.510;6.686;2023-02-01T00:19:34;16.42;;;8.25;;
57593;SDS011;43423;46.510;6.686;2023-02-01T00:22:00;14.50;;;7.88;;
57593;SDS011;43423;46.510;6.686;2023-02-01T00:24:25;16.23;;;8.77;;
57593;SDS011;43423;46.510;6.686;2023-02-01T00:26:51;15.88;;;7.25;;
57593;SDS011;43423;46.510;6.686;2023-02-01T00:29:18;16.92;;;7.38;;
57593;SDS011;43423;46.510;6.686;2023-02-01T00:31:45;17.83;;;7.78;;
57593;SDS011;43423;46.510;6.686;2023-02-01T00:34:15;19.73;;;8.50;;
57593;SDS011;43423;46.510;6.686;2023-02-01T00:36:41;17.15;;;7.28;;
57593;SDS011;43423;46.510;6.686;2023-02-01T00:39:08;18.33;;;8.43;;
57593;SDS011;43423;46.510;6.686;2023-02-01T00:41:35;21.90;;;8.50;;
57593;SDS011;43423;46.510;6.686;2023-02-01T00:44:00;17.25;;;9.30;;
57593;SDS011;43423;46.510;6.686;2023-02-01T00:46:26;18.48;;;8.57;;
57593;SDS011;43423;46.510;6.686;2023-02-01T00:48:52;17.02;;;8.93;;
57593;SDS011;43423;46.510;6.686;2023-02-01T00:51:19;16.50;;;9.07;;
57593;SDS011;43423;46.510;6.686;2023-02-01T00:53:47;16.65;;;8.68;;
57593;SDS011;43423;46.510;6.686;2023-02-01T00:56:13;17.38;;;8.30;;
57593;SDS011;43423;46.510;6.686;2023-02-01T00:58:38;20.30;;;8.35;;
57593;SDS011;43423;46.510;6.686;2023-02-01T01:01:12;19.88;;;9.30;;
57593;SDS011;43423;46.510;6.686;2023-02-01T01:03:47;19.77;;;8.27;;
57593;SDS011;43423;46.510;6.686;2023-02-01T01:06:20;15.60;;;8.27;;
57593;SDS011;43423;46.510;6.686;2023-02-01T01:08:49;18.63;;;8.48;;
57593;SDS011;43423;46.510;6.686;2023-02-01T01:11:17;14.40;;;8.23;;
57593;SDS011;43423;46.510;6.686;2023-02-01T01:13:46;19.25;;;8.63;;
57593;SDS011;43423;46.510;6.686;2023-02-01T01:16:12;16.73;;;7.88;;
57593;SDS011;43423;46.510;6.686;2023-02-01T01:18:38;16.98;;;8.23;;
57593;SDS011;43423;46.510;6.686;2023-02-01T01:21:05;16.67;;;8.30;;
57593;SDS011;43423;46.510;6.686;2023-02-01T01:23:31;13.90;;;7.13;;
57593;SDS011;43423;46.510;6.686;2023-02-01T01:25:57;21.02;;;8.18;;
57593;SDS011;43423;46.510;6.686;2023-02-01T01:28:22;19.85;;;9.05;;
57593;SDS011;43423;46.510;6.686;2023-02-01T01:30:48;16.27;;;8.02;;
57593;SDS011;43423;46.510;6.686;2023-02-01T01:33:13;18.05;;;9.60;;
57593;SDS011;43423;46.510;6.686;2023-02-01T01:35:39;14.60;;;7.88;;
57593;SDS011;43423;46.510;6.686;2023-02-01T01:38:05;17.52;;;8.55;;
57593;SDS011;43423;46.510;6.686;2023-02-01T01:40:31;16.15;;;8.25;;
57593;SDS011;43423;46.510;6.686;2023-02-01T01:42:56;15.63;;;8.48;;
57593;SDS011;43423;46.510;6.686;2023-02-01T01:47:54;18.55;;;8.35;;
57593;SDS011;43423;46.510;6.686;2023-02-01T01:50:23;15.25;;;8.18;;
57593;SDS011;43423;46.510;6.686;2023-02-01T01:52:54;16.27;;;8.68;;
57593;SDS011;43423;46.510;6.686;2023-02-01T01:55:22;16.58;;;8.52;;
57593;SDS011;43423;46.510;6.686;2023-02-01T01:57:56;19.00;;;8.57;;
57593;SDS011;43423;46.510;6.686;2023-02-01T02:00:26;14.93;;;7.95;;
57593;SDS011;43423;46.510;6.686;2023-02-01T02:02:57;16.77;;;8.52;;
57593;SDS011;43423;46.510;6.686;2023-02-01T02:05:25;19.52;;;8.82;;
57593;SDS011;43423;46.510;6.686;2023-02-01T02:07:52;15.65;;;8.30;;
57593;SDS011;43423;46.510;6.686;2023-02-01T02:10:18;17.08;;;8.88;;
57593;SDS011;43423;46.510;6.686;2023-02-01T02:12:45;15.88;;;8.15;;
57593;SDS011;43423;46.510;6.686;2023-02-01T02:15:14;19.63;;;9.80;;
57593;SDS011;43423;46.510;6.686;2023-02-01T02:20:30;18.17;;;9.00;;
57593;SDS011;43423;46.510;6.686;2023-02-01T02:26:34;14.40;;;7.55;;
57593;SDS011;43423;46.510;6.686;2023-02-01T02:29:12;14.50;;;7.15;;
57593;SDS011;43423;46.510;6.686;2023-02-01T02:34:55;15.23;;;7.90;;
57593;SDS011;43423;46.510;6.686;2023-02-01T02:37:41;14.25;;;7.22;;
57593;SDS011;43423;46.510;6.686;2023-02-01T02:40:32;15.52;;;7.60;;
57593;SDS011;43423;46.510;6.686;2023-02-01T02:43:11;16.65;;;7.10;;
57593;SDS011;43423;46.510;6.686;2023-02-01T02:46:05;15.80;;;6.88;;
57593;SDS011;43423;46.510;6.686;2023-02-01T02:49:42;14.25;;;7.13;;
57593;SDS011;43423;46.510;6.686;2023-02-01T02:51:53;13.02;;;6.80;;
57593;SDS011;43423;46.510;6.686;2023-02-01T02:54:43;13.38;;;6.95;;
57593;SDS011;43423;46.510;6.686;2023-02-01T02:57:21;13.60;;;6.88;;
57593;SDS011;43423;46.510;6.686;2023-02-01T03:00:11;13.55;;;6.28;;
57593;SDS011;43423;46.510;6.686;2023-02-01T03:02:59;15.52;;;7.47;;
57593;SDS011;43423;46.510;6.686;2023-02-01T03:05:45;15.50;;;7.22;;
57593;SDS011;43423;46.510;6.686;2023-02-01T03:08:13;15.25;;;7.65;;
57593;SDS011;43423;46.510;6.686;2023-02-01T03:16:12;14.00;;;7.03;;
57593;SDS011;43423;46.510;6.686;2023-02-01T03:19:05;15.90;;;7.60;;
57593;SDS011;43423;46.510;6.686;2023-02-01T03:21:38;16.83;;;8.35;;
57593;SDS011;43423;46.510;6.686;2023-02-01T03:26:54;14.70;;;8.05;;
57593;SDS011;43423;46.510;6.686;2023-02-01T03:29:24;14.73;;;7.57;;
57593;SDS011;43423;46.510;6.686;2023-02-01T03:31:55;17.92;;;8.75;;
57593;SDS011;43423;46.510;6.686;2023-02-01T03:34:20;15.45;;;7.72;;
57593;SDS011;43423;46.510;6.686;2023-02-01T03:36:48;18.23;;;8.30;;
57593;SDS011;43423;46.510;6.686;2023-02-01T03:39:31;18.20;;;9.27;;
57593;SDS011;43423;46.510;6.686;2023-02-01T03:42:03;21.98;;;9.02;;
57593;SDS011;43423;46.510;6.686;2023-02-01T03:44:32;20.33;;;9.25;;
57593;SDS011;43423;46.510;6.686;2023-02-01T03:47:06;19.60;;;9.90;;
57593;SDS011;43423;46.510;6.686;2023-02-01T03:49:42;17.63;;;9.23;;
57593;SDS011;43423;46.510;6.686;2023-02-01T03:52:16;22.60;;;10.38;;
57593;SDS011;43423;46.510;6.686;2023-02-01T03:54:47;21.63;;;10.43;;
57593;SDS011;43423;46.510;6.686;2023-02-01T03:57:16;19.02;;;10.02;;
57593;SDS011;43423;46.510;6.686;2023-02-01T03:59:48;19.23;;;11.13;;
57593;SDS011;43423;46.510;6.686;2023-02-01T04:02:15;23.23;;;10.32;;
57593;SDS011;43423;46.510;6.686;2023-02-01T04:04:41;26.10;;;11.80;;
57593;SDS011;43423;46.510;6.686;2023-02-01T04:07:06;18.08;;;9.70;;
57593;SDS011;43423;46.510;6.686;2023-02-01T04:09:32;22.80;;;10.75;;
57593;SDS011;43423;46.510;6.686;2023-02-01T04:11:57;23.70;;;10.40;;
57593;SDS011;43423;46.510;6.686;2023-02-01T04:14:23;23.27;;;10.95;;
57593;SDS011;43423;46.510;6.686;2023-02-01T04:16:48;23.38;;;11.55;;
57593;SDS011;43423;46.510;6.686;2023-02-01T04:19:14;21.13;;;10.70;;
57593;SDS011;43423;46.510;6.686;2023-02-01T04:21:40;22.75;;;11.35;;
57593;SDS011;43423;46.510;6.686;2023-02-01T04:24:05;22.13;;;10.65;;
57593;SDS011;43423;46.510;6.686;2023-02-01T04:26:31;27.40;;;10.95;;
57593;SDS011;43423;46.510;6.686;2023-02-01T04:28:56;22.25;;;10.07;;
57593;SDS011;43423;46.510;6.686;2023-02-01T04:31:22;24.55;;;11.70;;
57593;SDS011;43423;46.510;6.686;2023-02-01T04:33:51;25.02;;;11.23;;
57593;SDS011;43423;46.510;6.686;2023-02-01T04:36:18;23.35;;;11.57;;
57593;SDS011;43423;46.510;6.686;2023-02-01T04:38:47;21.48;;;10.38;;
57593;SDS011;43423;46.510;6.686;2023-02-01T04:41:14;26.85;;;12.27;;
57593;SDS011;43423;46.510;6.686;2023-02-01T04:43:40;26.13;;;11.70;;
57593;SDS011;43423;46.510;6.686;2023-02-01T04:46:06;25.15;;;11.93;;
57593;SDS011;43423;46.510;6.686;2023-02-01T04:48:31;21.63;;;11.35;;
57593;SDS011;43423;46.510;6.686;2023-02-01T04:50:57;22.02;;;10.85;;
57593;SDS011;43423;46.510;6.686;2023-02-01T04:53:22;22.20;;;10.98;;
57593;SDS011;43423;46.510;6.686;2023-02-01T04:55:48;23.02;;;11.73;;
57593;SDS011;43423;46.510;6.686;2023-02-01T04:58:15;23.08;;;11.32;;
57593;SDS011;43423;46.510;6.686;2023-02-01T05:00:40;21.30;;;10.27;;
57593;SDS011;43423;46.510;6.686;2023-02-01T05:03:06;25.45;;;10.57;;
57593;SDS011;43423;46.510;6.686;2023-02-01T05:05:31;21.20;;;10.63;;
57593;SDS011;43423;46.510;6.686;2023-02-01T05:07:57;23.95;;;10.77;;
57593;SDS011;43423;46.510;6.686;2023-02-01T05:10:23;26.50;;;11.18;;
57593;SDS011;43423;46.510;6.686;2023-02-01T05:12:48;22.42;;;10.20;;
57593;SDS011;43423;46.510;6.686;2023-02-01T05:15:32;24.45;;;9.63;;
57593;SDS011;43423;46.510;6.686;2023-02-01T05:17:58;23.20;;;9.10;;
57593;SDS011;43423;46.510;6.686;2023-02-01T05:20:24;18.52;;;8.88;;
57593;SDS011;43423;46.510;6.686;2023-02-01T05:22:49;19.67;;;9.07;;
57593;SDS011;43423;46.510;6.686;2023-02-01T05:25:15;20.10;;;9.35;;
57593;SDS011;43423;46.510;6.686;2023-02-01T05:27:41;15.45;;;8.10;;
57593;SDS011;43423;46.510;6.686;2023-02-01T05:30:06;13.90;;;7.38;;
57593;SDS011;43423;46.510;6.686;2023-02-01T05:32:33;14.68;;;7.80;;
57593;SDS011;43423;46.510;6.686;2023-02-01T05:34:58;15.88;;;8.00;;
57593;SDS011;43423;46.510;6.686;2023-02-01T05:37:24;17.17;;;8.13;;
57593;SDS011;43423;46.510;6.686;2023-02-01T05:39:49;15.63;;;7.63;;
57593;SDS011;43423;46.510;6.686;2023-02-01T05:42:15;16.85;;;7.25;;
57593;SDS011;43423;46.510;6.686;2023-02-01T05:44:41;16.13;;;8.18;;
57593;SDS011;43423;46.510;6.686;2023-02-01T05:47:06;15.00;;;7.50;;
57593;SDS011;43423;46.510;6.686;2023-02-01T05:49:32;13.30;;;6.25;;
57593;SDS011;43423;46.510;6.686;2023-02-01T05:51:58;17.35;;;6.97;;
57593;SDS011;43423;46.510;6.686;2023-02-01T05:54:23;16.40;;;7.07;;
57593;SDS011;43423;46.510;6.686;2023-02-01T05:56:49;13.32;;;6.15;;
57593;SDS011;43423;46.510;6.686;2023-02-01T05:59:14;13.82;;;6.60;;
57593;SDS011;43423;46.510;6.686;2023-02-01T06:01:40;15.10;;;7.03;;
57593;SDS011;43423;46.510;6.686;2023-02-01T06:04:06;16.65;;;6.63;;
57593;SDS011;43423;46.510;6.686;2023-02-01T06:06:31;12.10;;;6.55;;
57593;SDS011;43423;46.510;6.686;2023-02-01T06:08:57;12.52;;;6.60;;
57593;SDS011;43423;46.510;6.686;2023-02-01T06:11:22;16.98;;;7.20;;
57593;SDS011;43423;46.510;6.686;2023-02-01T06:13:48;12.43;;;5.78;;
57593;SDS011;43423;46.510;6.686;2023-02-01T06:16:13;13.25;;;6.18;;
57593;SDS011;43423;46.510;6.686;2023-02-01T06:18:41;15.23;;;6.32;;
57593;SDS011;43423;46.510;6.686;2023-02-01T06:21:07;12.35;;;6.43;;
57593;SDS011;43423;46.510;6.686;2023-02-01T06:23:33;12.00;;;5.63;;
57593;SDS011;43423;46.510;6.686;2023-02-01T06:26:00;15.68;;;6.07;;
57593;SDS011;43423;46.510;6.686;2023-02-01T06:28:29;12.13;;;6.15;;
57593;SDS011;43423;46.510;6.686;2023-02-01T06:30:54;10.75;;;5.40;;
57593;SDS011;43423;46.510;6.686;2023-02-01T06:33:20;15.93;;;6.13;;
57593;SDS011;43423;46.510;6.686;2023-02-01T06:35:46;9.93;;;5.28;;
57593;SDS011;43423;46.510;6.686;2023-02-01T06:38:12;12.55;;;5.63;;
57593;SDS011;43423;46.510;6.686;2023-02-01T06:40:39;11.20;;;5.97;;
57593;SDS011;43423;46.510;6.686;2023-02-01T06:43:06;10.93;;;6.28;;
57593;SDS011;43423;46.510;6.686;2023-02-01T06:45:32;12.23;;;5.90;;
57593;SDS011;43423;46.510;6.686;2023-02-01T06:47:58;12.63;;;6.00;;
57593;SDS011;43423;46.510;6.686;2023-02-01T06:50:25;10.60;;;5.43;;
57593;SDS011;43423;46.510;6.686;2023-02-01T06:52:51;13.95;;;5.55;;
57593;SDS011;43423;46.510;6.686;2023-02-01T06:55:17;12.90;;;5.63;;
57593;SDS011;43423;46.510;6.686;2023-02-01T06:57:43;14.10;;;5.53;;
57593;SDS011;43423;46.510;6.686;2023-02-01T07:00:08;10.18;;;5.53;;
57593;SDS011;43423;46.510;6.686;2023-02-01T07:02:34;11.57;;;5.53;;
57593;SDS011;43423;46.510;6.686;2023-02-01T07:05:00;11.73;;;5.47;;
57593;SDS011;43423;46.510;6.686;2023-02-01T07:07:25;11.20;;;5.30;;
57593;SDS011;43423;46.510;6.686;2023-02-01T07:09:51;11.90;;;5.32;;
57593;SDS011;43423;46.510;6.686;2023-02-01T07:12:16;10.10;;;5.00;;
57593;SDS011;43423;46.510;6.686;2023-02-01T07:14:43;7.22;;;4.20;;
57593;SDS011;43423;46.510;6.686;2023-02-01T07:17:09;11.77;;;5.43;;
57593;SDS011;43423;46.510;6.686;2023-02-01T07:19:35;10.13;;;5.15;;
57593;SDS011;43423;46.510;6.686;2023-02-01T07:22:00;9.05;;;4.90;;
57593;SDS011;43423;46.510;6.686;2023-02-01T07:24:26;12.95;;;5.15;;
57593;SDS011;43423;46.510;6.686;2023-02-01T07:26:51;11.75;;;5.53;;
57593;SDS011;43423;46.510;6.686;2023-02-01T07:29:17;13.63;;;6.25;;
57593;SDS011;43423;46.510;6.686;2023-02-01T07:31:43;9.75;;;4.88;;
57593;SDS011;43423;46.510;6.686;2023-02-01T07:34:09;18.02;;;6.30;;
57593;SDS011;43423;46.510;6.686;2023-02-01T07:36:35;10.75;;;5.57;;
57593;SDS011;43423;46.510;6.686;2023-02-01T07:39:01;10.27;;;5.40;;
57593;SDS011;43423;46.510;6.686;2023-02-01T07:41:28;11.18;;;5.35;;
57593;SDS011;43423;46.510;6.686;2023-02-01T07:43:54;14.60;;;6.47;;
57593;SDS011;43423;46.510;6.686;2023-02-01T07:46:20;11.20;;;6.22;;
57593;SDS011;43423;46.510;6.686;2023-02-01T07:48:46;15.52;;;6.85;;
57593;SDS011;43423;46.510;6.686;2023-02-01T07:51:13;16.88;;;8.02;;
57593;SDS011;43423;46.510;6.686;2023-02-01T07:53:40;18.15;;;8.57;;
57593;SDS011;43423;46.510;6.686;2023-02-01T07:56:17;17.25;;;8.27;;
57593;SDS011;43423;46.510;6.686;2023-02-01T07:58:47;18.15;;;9.05;;
57593;SDS011;43423;46.510;6.686;2023-02-01T08:01:14;19.83;;;9.77;;
57593;SDS011;43423;46.510;6.686;2023-02-01T08:03:45;20.98;;;8.45;;
57593;SDS011;43423;46.510;6.686;2023-02-01T08:06:11;19.23;;;9.18;;
57593;SDS011;43423;46.510;6.686;2023-02-01T08:08:36;18.98;;;9.25;;
57593;SDS011;43423;46.510;6.686;2023-02-01T08:11:03;21.20;;;9.88;;
57593;SDS011;43423;46.510;6.686;2023-02-01T08:13:30;18.05;;;9.27;;
57593;SDS011;43423;46.510;6.686;2023-02-01T08:15:59;21.45;;;9.48;;
57593;SDS011;43423;46.510;6.686;2023-02-01T08:18:26;18.60;;;9.38;;
57593;SDS011;43423;46.510;6.686;2023-02-01T08:20:52;22.63;;;9.52;;
57593;SDS011;43423;46.510;6.686;2023-02-01T08:23:18;17.60;;;9.45;;
57593;SDS011;43423;46.510;6.686;2023-02-01T08:25:45;16.58;;;9.27;;
57593;SDS011;43423;46.510;6.686;2023-02-01T08:28:11;19.38;;;9.18;;
57593;SDS011;43423;46.510;6.686;2023-02-01T08:30:38;19.25;;;8.15;;
57593;SDS011;43423;46.510;6.686;2023-02-01T08:33:04;19.80;;;9.02;;
57593;SDS011;43423;46.510;6.686;2023-02-01T08:35:32;19.45;;;8.30;;
57593;SDS011;43423;46.510;6.686;2023-02-01T08:38:00;18.48;;;9.05;;
57593;SDS011;43423;46.510;6.686;2023-02-01T08:40:25;15.52;;;8.35;;
57593;SDS011;43423;46.510;6.686;2023-02-01T08:42:51;19.08;;;8.38;;
57593;SDS011;43423;46.510;6.686;2023-02-01T08:45:17;18.88;;;8.32;;
57593;SDS011;43423;46.510;6.686;2023-02-01T08:47:44;19.25;;;9.40;;
57593;SDS011;43423;46.510;6.686;2023-02-01T08:50:10;22.65;;;9.98;;
57593;SDS011;43423;46.510;6.686;2023-02-01T08:52:35;17.17;;;9.13;;
57593;SDS011;43423;46.510;6.686;2023-02-01T08:55:01;21.73;;;8.90;;
57593;SDS011;43423;46.510;6.686;2023-02-01T08:57:26;16.13;;;8.50;;
57593;SDS011;43423;46.510;6.686;2023-02-01T08:59:52;17.83;;;8.68;;
57593;SDS011;43423;46.510;6.686;2023-02-01T09:02:18;25.45;;;9.88;;
57593;SDS011;43423;46.510;6.686;2023-02-01T09:04:44;20.55;;;9.70;;
57593;SDS011;43423;46.510;6.686;2023-02-01T09:07:09;18.70;;;9.00;;
57593;SDS011;43423;46.510;6.686;2023-02-01T09:09:35;19.65;;;9.90;;
57593;SDS011;43423;46.510;6.686;2023-02-01T09:12:02;18.75;;;9.52;;
57593;SDS011;43423;46.510;6.686;2023-02-01T09:14:29;22.88;;;9.38;;
57593;SDS011;43423;46.510;6.686;2023-02-01T09:16:54;19.33;;;9.68;;
57593;SDS011;43423;46.510;6.686;2023-02-01T09:19:21;19.73;;;9.25;;
57593;SDS011;43423;46.510;6.686;2023-02-01T09:21:46;18.75;;;9.82;;
57593;SDS011;43423;46.510;6.686;2023-02-01T09:24:12;18.98;;;9.30;;
57593;SDS011;43423;46.510;6.686;2023-02-01T09:26:38;23.02;;;10.50;;
57593;SDS011;43423;46.510;6.686;2023-02-01T09:29:04;25.60;;;10.85;;
57593;SDS011;43423;46.510;6.686;2023-02-01T09:31:35;23.98;;;9.98;;
57593;SDS011;43423;46.510;6.686;2023-02-01T09:34:02;26.33;;;10.52;;
57593;SDS011;43423;46.510;6.686;2023-02-01T09:36:28;25.10;;;10.95;;
57593;SDS011;43423;46.510;6.686;2023-02-01T09:38:53;24.88;;;11.75;;
57593;SDS011;43423;46.510;6.686;2023-02-01T09:47:02;25.55;;;12.25;;
57593;SDS011;43423;46.510;6.686;2023-02-01T09:49:32;26.23;;;12.23;;
57593;SDS011;43423;46.510;6.686;2023-02-01T09:52:07;28.50;;;13.38;;
57593;SDS011;43423;46.510;6.686;2023-02-01T09:54:42;29.23;;;12.07;;
57593;SDS011;43423;46.510;6.686;2023-02-01T09:57:23;28.92;;;12.32;;
57593;SDS011;43423;46.510;6.686;2023-02-01T10:00:14;23.08;;;11.10;;
57593;SDS011;43423;46.510;6.686;2023-02-01T10:02:50;22.58;;;10.88;;
57593;SDS011;43423;46.510;6.686;2023-02-01T10:05:18;24.52;;;10.77;;
57593;SDS011;43423;46.510;6.686;2023-02-01T10:10:43;25.58;;;11.77;;
57593;SDS011;43423;46.510;6.686;2023-02-01T10:13:14;23.90;;;10.85;;
57593;SDS011;43423;46.510;6.686;2023-02-01T10:15:46;28.25;;;10.82;;
57593;SDS011;43423;46.510;6.686;2023-02-01T10:23:54;23.75;;;10.60;;
57593;SDS011;43423;46.510;6.686;2023-02-01T10:26:36;22.50;;;10.13;;
57593;SDS011;43423;46.510;6.686;2023-02-01T10:29:04;27.75;;;11.38;;
57593;SDS011;43423;46.510;6.686;2023-02-01T10:31:43;22.80;;;10.95;;
57593;SDS011;43423;46.510;6.686;2023-02-01T10:34:22;21.40;;;10.90;;
57593;SDS011;43423;46.510;6.686;2023-02-01T10:36:53;31.85;;;10.57;;
57593;SDS011;43423;46.510;6.686;2023-02-01T10:39:20;22.95;;;10.25;;
57593;SDS011;43423;46.510;6.686;2023-02-01T10:41:46;26.13;;;9.75;;
57593;SDS011;43423;46.510;6.686;2023-02-01T10:44:17;22.13;;;9.73;;
57593;SDS011;43423;46.510;6.686;2023-02-01T10:46:48;22.02;;;8.80;;
57593;SDS011;43423;46.510;6.686;2023-02-01T10:49:17;18.55;;;8.35;;
57593;SDS011;43423;46.510;6.686;2023-02-01T10:51:52;18.25;;;8.20;;
57593;SDS011;43423;46.510;6.686;2023-02-01T10:54:33;20.55;;;8.57;;
57593;SDS011;43423;46.510;6.686;2023-02-01T10:57:07;18.08;;;8.38;;
57593;SDS011;43423;46.510;6.686;2023-02-01T10:59:55;23.23;;;9.15;;
57593;SDS011;43423;46.510;6.686;2023-02-01T11:05:03;17.15;;;8.63;;
57593;SDS011;43423;46.510;6.686;2023-02-01T11:07:34;20.15;;;9.07;;
57593;SDS011;43423;46.510;6.686;2023-02-01T11:10:00;19.30;;;8.85;;
57593;SDS011;43423;46.510;6.686;2023-02-01T11:12:31;18.33;;;8.63;;
57593;SDS011;43423;46.510;6.686;2023-02-01T11:15:00;19.13;;;8.30;;
57593;SDS011;43423;46.510;6.686;2023-02-01T11:17:47;17.17;;;7.85;;
57593;SDS011;43423;46.510;6.686;2023-02-01T11:20:17;19.52;;;8.43;;
57593;SDS011;43423;46.510;6.686;2023-02-01T11:22:48;18.95;;;8.95;;
57593;SDS011;43423;46.510;6.686;2023-02-01T11:25:21;19.63;;;9.13;;
57593;SDS011;43423;46.510;6.686;2023-02-01T11:27:49;20.30;;;8.38;;
57593;SDS011;43423;46.510;6.686;2023-02-01T11:30:18;16.08;;;8.55;;
57593;SDS011;43423;46.510;6.686;2023-02-01T11:32:52;15.60;;;7.65;;
57593;SDS011;43423;46.510;6.686;2023-02-01T11:35:19;20.38;;;9.07;;
57593;SDS011;43423;46.510;6.686;2023-02-01T11:37:50;17.30;;;7.82;;
57593;SDS011;43423;46.510;6.686;2023-02-01T11:42:59;17.30;;;7.90;;
57593;SDS011;43423;46.510;6.686;2023-02-01T11:45:32;16.95;;;8.23;;
57593;SDS011;43423;46.510;6.686;2023-02-01T11:48:00;16.98;;;8.70;;
57593;SDS011;43423;46.510;6.686;2023-02-01T11:56:05;15.35;;;7.97;;
57593;SDS011;43423;46.510;6.686;2023-02-01T12:04:21;14.32;;;7.30;;
57593;SDS011;43423;46.510;6.686;2023-02-01T12:09:51;19.10;;;7.93;;
57593;SDS011;43423;46.510;6.686;2023-02-01T12:21:21;16.73;;;8.05;;
57593;SDS011;43423;46.510;6.686;2023-02-01T12:26:56;14.57;;;7.45;;
57593;SDS011;43423;46.510;6.686;2023-02-01T12:32:37;16.48;;;8.05;;
57593;SDS011;43423;46.510;6.686;2023-02-01T12:38:20;15.70;;;7.15;;
57593;SDS011;43423;46.510;6.686;2023-02-01T12:41:18;16.30;;;7.82;;
57593;SDS011;43423;46.510;6.686;2023-02-01T12:52:43;20.42;;;8.98;;
57593;SDS011;43423;46.510;6.686;2023-02-01T12:58:13;12.00;;;6.60;;
57593;SDS011;43423;46.510;6.686;2023-02-01T13:00:46;15.00;;;6.95;;
57593;SDS011;43423;46.510;6.686;2023-02-01T13:06:06;15.90;;;6.38;;
57593;SDS011;43423;46.510;6.686;2023-02-01T13:08:56;17.08;;;7.78;;
57593;SDS011;43423;46.510;6.686;2023-02-01T13:11:36;13.52;;;6.20;;
57593;SDS011;43423;46.510;6.686;2023-02-01T13:14:11;13.73;;;7.03;;
57593;SDS011;43423;46.510;6.686;2023-02-01T13:16:46;13.68;;;7.05;;
57593;SDS011;43423;46.510;6.686;2023-02-01T13:19:22;18.63;;;8.25;;
57593;SDS011;43423;46.510;6.686;2023-02-01T13:22:03;17.65;;;8.90;;
57593;SDS011;43423;46.510;6.686;2023-02-01T13:24:35;19.25;;;8.48;;
57593;SDS011;43423;46.510;6.686;2023-02-01T13:27:04;15.30;;;8.63;;
57593;SDS011;43423;46.510;6.686;2023-02-01T13:29:30;18.75;;;7.93;;
57593;SDS011;43423;46.510;6.686;2023-02-01T13:34:53;12.77;;;7.47;;
57593;SDS011;43423;46.510;6.686;2023-02-01T13:45:42;16.50;;;8.65;;
57593;SDS011;43423;46.510;6.686;2023-02-01T13:48:19;15.70;;;8.18;;
57593;SDS011;43423;46.510;6.686;2023-02-01T13:50:52;14.32;;;8.48;;
57593;SDS011;43423;46.510;6.686;2023-02-01T13:53:26;16.35;;;8.15;;
57593;SDS011;43423;46.510;6.686;2023-02-01T13:55:56;17.83;;;8.95;;
57593;SDS011;43423;46.510;6.686;2023-02-01T13:58:32;18.13;;;8.00;;
57593;SDS011;43423;46.510;6.686;2023-02-01T14:03:56;17.17;;;8.35;;
57593;SDS011;43423;46.510;6.686;2023-02-01T14:11:46;20.40;;;8.07;;
57593;SDS011;43423;46.510;6.686;2023-02-01T14:19:35;11.90;;;6.75;;
57593;SDS011;43423;46.510;6.686;2023-02-01T14:24:49;13.93;;;6.93;;
57593;SDS011;43423;46.510;6.686;2023-02-01T14:27:23;12.25;;;7.38;;
57593;SDS011;43423;46.510;6.686;2023-02-01T14:29:59;11.18;;;6.30;;
57593;SDS011;43423;46.510;6.686;2023-02-01T14:32:36;12.95;;;6.30;;
57593;SDS011;43423;46.510;6.686;2023-02-01T14:35:08;13.10;;;6.90;;
57593;SDS011;43423;46.510;6.686;2023-02-01T14:37:44;13.23;;;6.75;;
57593;SDS011;43423;46.510;6.686;2023-02-01T14:42:47;12.95;;;6.57;;
57593;SDS011;43423;46.510;6.686;2023-02-01T14:47:43;11.05;;;5.78;;
57593;SDS011;43423;46.510;6.686;2023-02-01T14:52:42;15.32;;;7.15;;
57593;SDS011;43423;46.510;6.686;2023-02-01T14:55:21;14.75;;;6.75;;
57593;SDS011;43423;46.510;6.686;2023-02-01T14:57:52;11.20;;;6.35;;
57593;SDS011;43423;46.510;6.686;2023-02-01T15:00:25;13.55;;;6.70;;
57593;SDS011;43423;46.510;6.686;2023-02-01T15:02:54;12.38;;;6.85;;
57593;SDS011;43423;46.510;6.686;2023-02-01T15:05:37;14.38;;;7.30;;
57593;SDS011;43423;46.510;6.686;2023-02-01T15:08:10;11.65;;;6.47;;
57593;SDS011;43423;46.510;6.686;2023-02-01T15:10:43;12.07;;;6.80;;
57593;SDS011;43423;46.510;6.686;2023-02-01T15:13:24;14.02;;;6.95;;
57593;SDS011;43423;46.510;6.686;2023-02-01T15:18:36;12.15;;;6.72;;
57593;SDS011;43423;46.510;6.686;2023-02-01T15:21:04;15.20;;;7.10;;
57593;SDS011;43423;46.510;6.686;2023-02-01T15:23:30;12.90;;;7.43;;
57593;SDS011;43423;46.510;6.686;2023-02-01T15:25:57;12.48;;;6.43;;
57593;SDS011;43423;46.510;6.686;2023-02-01T15:28:24;12.77;;;7.28;;
57593;SDS011;43423;46.510;6.686;2023-02-01T15:30:58;14.88;;;7.70;;
57593;SDS011;43423;46.510;6.686;2023-02-01T15:33:26;17.23;;;8.10;;
57593;SDS011;43423;46.510;6.686;2023-02-01T15:35:54;15.02;;;8.40;;
57593;SDS011;43423;46.510;6.686;2023-02-01T15:38:38;14.38;;;7.88;;
57593;SDS011;43423;46.510;6.686;2023-02-01T15:41:20;14.10;;;7.60;;
57593;SDS011;43423;46.510;6.686;2023-02-01T15:46:24;14.27;;;7.40;;
57593;SDS011;43423;46.510;6.686;2023-02-01T15:49:01;14.98;;;7.53;;
57593;SDS011;43423;46.510;6.686;2023-02-01T15:51:29;14.68;;;7.45;;
57593;SDS011;43423;46.510;6.686;2023-02-01T15:56:29;14.70;;;7.53;;
57593;SDS011;43423;46.510;6.686;2023-02-01T15:59:00;11.60;;;6.60;;
57593;SDS011;43423;46.510;6.686;2023-02-01T16:01:27;13.85;;;7.90;;
57593;SDS011;43423;46.510;6.686;2023-02-01T16:04:04;12.25;;;7.22;;
57593;SDS011;43423;46.510;6.686;2023-02-01T16:06:49;14.10;;;7.07;;
57593;SDS011;43423;46.510;6.686;2023-02-01T16:09:17;16.63;;;7.28;;
57593;SDS011;43423;46.510;6.686;2023-02-01T16:11:51;17.35;;;7.95;;
57593;SDS011;43423;46.510;6.686;2023-02-01T16:14:22;10.18;;;6.35;;
57593;SDS011;43423;46.510;6.686;2023-02-01T16:16:48;10.60;;;6.72;;
57593;SDS011;43423;46.510;6.686;2023-02-01T16:19:14;12.52;;;7.53;;
57593;SDS011;43423;46.510;6.686;2023-02-01T16:21:40;15.30;;;8.48;;
57593;SDS011;43423;46.510;6.686;2023-02-01T16:24:06;14.45;;;7.75;;
57593;SDS011;43423;46.510;6.686;2023-02-01T16:26:32;16.45;;;8.50;;
57593;SDS011;43423;46.510;6.686;2023-02-01T16:28:59;15.65;;;7.38;;
57593;SDS011;43423;46.510;6.686;2023-02-01T16:31:29;13.30;;;7.15;;
57593;SDS011;43423;46.510;6.686;2023-02-01T16:33:56;17.52;;;8.38;;
57593;SDS011;43423;46.510;6.686;2023-02-01T16:36:22;15.23;;;8.27;;
57593;SDS011;43423;46.510;6.686;2023-02-01T16:38:49;14.90;;;7.95;;
57593;SDS011;43423;46.510;6.686;2023-02-01T16:41:19;13.52;;;8.55;;
57593;SDS011;43423;46.510;6.686;2023-02-01T16:43:49;13.32;;;7.65;;
57593;SDS011;43423;46.510;6.686;2023-02-01T16:46:17;20.77;;;8.32;;
57593;SDS011;43423;46.510;6.686;2023-02-01T16:48:48;13.60;;;7.17;;
57593;SDS011;43423;46.510;6.686;2023-02-01T16:53:43;16.65;;;7.60;;
57593;SDS011;43423;46.510;6.686;2023-02-01T16:56:12;18.00;;;7.68;;
57593;SDS011;43423;46.510;6.686;2023-02-01T16:58:38;13.05;;;7.47;;